Time;durP1;ratioP1;P1;durP2;ratioP2;P2;SDS_P1;SDS_P2;PMS_P1;PMS_P2;Temp;Humidity;BMP_temperature;BMP_pressure;BME280_temperature;BME280_humidity;BME280_pressure;Samples;Min_cycle;Max_cycle;Signal;HPM_P1;HPM_P2
2021/12/16 00:02:10;;;;;;;23.23;6.85;;;;;;;;;;5012663;28;20081;-57
2021/12/16 00:07:38;;;;;;;16.38;6.57;;;;;;;;;;5031418;28;20056;-59
2021/12/16 00:10:23;;;;;;;18.50;6.47;;;;;;;;;;5029341;28;20104;-59
2021/12/16 00:34:43;;;;;;;17.70;5.50;;;9.10;99.90;;;;;;5035538;28;20041;-58
2021/12/16 00:37:09;;;;;;;18.83;6.35;;;9.00;99.90;;;;;;5046807;28;20044;-60
2021/12/16 00:39:36;;;;;;;17.30;5.78;;;9.00;99.90;;;;;;5029644;28;20034;-58
2021/12/16 00:42:10;;;;;;;13.82;6.03;;;9.40;99.90;;;;;;5029590;28;20037;-57
2021/12/16 00:49:39;;;;;;;15.82;5.30;;;;;;;;;;5030316;28;20492;-58
2021/12/16 00:55:04;;;;;;;16.27;5.63;;;;;;;;;;5024494;28;20059;-58
2021/12/16 00:57:31;;;;;;;14.65;6.85;;;8.90;99.90;;;;;;5030443;28;20080;-56
2021/12/16 00:59:59;;;;;;;11.32;4.45;;;9.00;99.90;;;;;;5029204;28;20052;-59
2021/12/16 01:41:28;;;;;;;16.05;4.95;;;9.00;99.90;;;;;;4996304;28;20131;-58
2021/12/16 01:57:16;;;;;;;18.10;5.05;;;9.50;99.90;;;;;;5014753;28;20120;-58
2021/12/16 01:59:46;;;;;;;15.70;4.47;;;9.00;99.90;;;;;;5032594;28;20415;-60
2021/12/16 02:02:37;;;;;;;12.85;4.72;;;8.80;99.90;;;;;;5032072;28;20052;-58
2021/12/16 02:05:32;;;;;;;16.23;5.30;;;;;;;;;;5032909;28;20053;-58
2021/12/16 02:10:40;;;;;;;15.13;5.05;;;8.80;99.90;;;;;;5013604;28;20050;-60
2021/12/16 02:32:44;;;;;;;16.50;5.63;;;8.40;99.90;;;;;;5024727;28;20508;-58
2021/12/16 02:35:23;;;;;;;18.27;5.65;;;;;;;;;;5031285;28;20044;-54
2021/12/16 02:37:49;;;;;;;12.43;4.65;;;8.30;99.90;;;;;;5032285;28;20415;-58
2021/12/16 02:40:16;;;;;;;15.65;4.93;;;;;;;;;;5032522;28;20156;-58
2021/12/16 02:42:59;;;;;;;16.15;4.60;;;8.40;99.90;;;;;;5031906;28;20049;-58
2021/12/16 02:51:00;;;;;;;18.83;4.88;;;;;;;;;;5017489;28;20124;-59
2021/12/16 02:53:27;;;;;;;12.80;4.63;;;;;;;;;;5031085;28;20033;-59
2021/12/16 02:55:53;;;;;;;14.73;4.82;;;;;;;;;;5031700;28;20042;-58
2021/12/16 02:58:19;;;;;;;16.92;5.50;;;;;;;;;;5031815;28;20041;-58
2021/12/16 03:00:49;;;;;;;16.92;4.88;;;8.40;99.90;;;;;;5032206;28;20038;-57
2021/12/16 03:03:16;;;;;;;18.80;5.80;;;8.30;99.90;;;;;;5030312;28;20073;-57
2021/12/16 03:05:42;;;;;;;17.33;5.82;;;;;;;;;;5031684;28;20099;-56
2021/12/16 03:08:08;;;;;;;12.95;6.38;;;;;;;;;;5031231;28;20052;-56
2021/12/16 03:11:08;;;;;;;14.27;6.00;;;;;;;;;;5031610;28;20041;-56
2021/12/16 03:13:47;;;;;;;17.08;6.45;;;;;;;;;;5031343;28;20045;-57
2021/12/16 03:21:42;;;;;;;15.82;6.47;;;7.40;99.90;;;;;;5032334;28;19963;-57
2021/12/16 03:30:01;;;;;;;18.92;7.47;;;7.50;99.90;;;;;;5031117;28;20033;-57
2021/12/16 03:35:32;;;;;;;;;;;;;;;;;;5014119;28;20049;-57
2021/12/16 03:38:00;;;;;;;18.13;6.75;;;;;;;;;;5031512;28;19917;-57
2021/12/16 03:40:31;;;;;;;17.05;7.00;;;;;;;;;;5030948;28;20168;-57
2021/12/16 03:43:01;;;;;;;26.58;8.25;;;;;;;;;;5030829;28;20049;-59
2021/12/16 03:48:37;;;;;;;17.55;7.30;;;6.80;99.90;;;;;;5031460;28;20120;-56
2021/12/16 03:51:13;;;;;;;21.02;7.15;;;;;;;;;;5030785;28;20037;-59
2021/12/16 03:53:42;;;;;;;19.23;7.40;;;;;;;;;;5029823;28;20041;-58
2021/12/16 03:56:08;;;;;;;21.48;8.30;;;7.10;99.90;;;;;;5029179;28;20042;-59
2021/12/16 03:58:35;;;;;;;17.15;7.25;;;;;;;;;;5031072;28;20029;-59
2021/12/16 04:01:02;;;;;;;19.42;7.40;;;;;;;;;;5030342;28;20041;-59
2021/12/16 04:03:28;;;;;;;16.70;7.78;;;;;;;;;;5030443;28;20037;-58
2021/12/16 04:05:54;;;;;;;15.85;6.93;;;;;;;;;;5029209;28;20439;-57
2021/12/16 04:08:23;;;;;;;16.67;6.63;;;;;;;;;;5030766;28;20120;-57
2021/12/16 04:11:04;;;;;;;24.60;8.13;;;;;;;;;;5030615;28;20539;-58
2021/12/16 04:13:35;;;;;;;19.92;8.05;;;;;;;;;;5029108;28;20119;-56
2021/12/16 04:16:01;;;;;;;18.65;8.65;;;;;;;;;;5029464;28;20198;-58
2021/12/16 04:18:27;;;;;;;18.85;7.47;;;;;;;;;;5032551;28;20048;-56
2021/12/16 04:20:53;;;;;;;16.98;7.43;;;;;;;;;;5030052;28;20381;-58
2021/12/16 04:23:20;;;;;;;19.65;7.22;;;;;;;;;;5028627;28;20063;-54
2021/12/16 04:25:47;;;;;;;21.38;7.78;;;7.30;99.90;;;;;;5023811;28;20084;-57
2021/12/16 04:28:20;;;;;;;19.17;7.95;;;;;;;;;;5029987;28;20043;-57
2021/12/16 04:30:47;;;;;;;18.80;7.55;;;;;;;;;;5029357;28;20512;-58
2021/12/16 04:33:12;;;;;;;16.13;7.70;;;7.20;99.90;;;;;;5030026;28;20041;-59
2021/12/16 04:35:41;;;;;;;20.83;8.05;;;6.80;99.90;;;;;;5029803;28;20223;-58
2021/12/16 04:38:08;;;;;;;19.38;7.82;;;;;;;;;;5030335;28;20433;-59
2021/12/16 04:40:36;;;;;;;28.95;9.13;;;;;;;;;;5030069;28;20034;-57
2021/12/16 04:43:03;;;;;;;21.63;7.38;;;;;;;;;;5030311;28;20083;-57
2021/12/16 04:45:29;;;;;;;17.83;8.07;;;;;;;;;;5039768;28;20395;-57
2021/12/16 04:47:55;;;;;;;18.73;7.85;;;7.20;99.90;;;;;;5050254;28;20498;-57
2021/12/16 04:50:21;;;;;;;25.73;8.65;;;;;;;;;;5030372;28;20045;-57
2021/12/16 04:52:47;;;;;;;19.73;7.68;;;;;;;;;;5030258;28;20052;-58
2021/12/16 04:55:14;;;;;;;19.50;8.05;;;;;;;;;;5039076;28;20755;-57
2021/12/16 04:57:50;;;;;;;19.90;8.65;;;7.40;99.90;;;;;;5039234;28;20048;-56
2021/12/16 05:00:18;;;;;;;17.25;7.72;;;;;;;;;;5012390;28;20423;-58
2021/12/16 05:02:44;;;;;;;20.55;8.45;;;;;;;;;;5034627;28;20056;-57
2021/12/16 05:05:10;;;;;;;19.25;8.75;;;;;;;;;;5030024;28;20051;-58
2021/12/16 05:07:36;;;;;;;22.23;7.82;;;;;;;;;;5030455;28;20041;-57
2021/12/16 05:12:32;;;;;;;22.17;8.30;;;;;;;;;;5029491;28;20115;-57
2021/12/16 05:15:01;;;;;;;18.00;7.85;;;7.00;99.90;;;;;;5029039;28;20037;-57
2021/12/16 05:17:32;;;;;;;24.83;8.55;;;;;;;;;;5029606;28;20636;-58
2021/12/16 05:20:03;;;;;;;21.40;8.32;;;7.10;99.90;;;;;;5030528;28;20045;-57
2021/12/16 05:25:25;;;;;;;20.42;9.25;;;;;;;;;;5027496;28;20046;-59
2021/12/16 05:27:50;;;;;;;21.10;9.18;;;7.20;99.90;;;;;;5029721;28;20561;-57
2021/12/16 05:30:16;;;;;;;23.73;9.45;;;;;;;;;;5028920;28;20121;-60
2021/12/16 05:32:45;;;;;;;22.17;8.70;;;;;;;;;;5030312;28;20073;-59
2021/12/16 05:35:12;;;;;;;21.85;9.13;;;;;;;;;;5032364;28;20103;-59
2021/12/16 05:37:38;;;;;;;23.45;8.93;;;;;;;;;;5033405;28;20038;-57
2021/12/16 05:40:04;;;;;;;25.13;10.10;;;;;;;;;;5031756;28;20033;-57
2021/12/16 05:42:30;;;;;;;28.67;9.80;;;7.30;99.90;;;;;;5033649;28;20048;-58
2021/12/16 05:44:56;;;;;;;20.95;9.25;;;;;;;;;;5032135;28;20487;-57
2021/12/16 05:47:22;;;;;;;23.73;9.85;;;7.30;99.90;;;;;;5032619;28;20096;-56
2021/12/16 05:52:25;;;;;;;23.52;10.10;;;;;;;;;;5070968;22;20131;-56
2021/12/16 05:54:51;;;;;;;24.85;10.27;;;;;;;;;;5073869;28;20140;-56
2021/12/16 05:57:17;;;;;;;20.20;8.98;;;;;;;;;;5068717;28;20064;-58
2021/12/16 05:59:43;;;;;;;31.48;10.85;;;;;;;;;;5060153;28;20504;-54
2021/12/16 06:02:09;;;;;;;19.90;9.93;;;;;;;;;;5065656;28;20045;-58
2021/12/16 06:04:36;;;;;;;22.23;9.68;;;;;;;;;;5062441;28;20037;-57
2021/12/16 06:07:01;;;;;;;24.58;12.43;;;7.40;99.90;;;;;;5069010;28;20068;-55
2021/12/16 06:09:27;;;;;;;23.15;10.38;;;;;;;;;;5064832;28;20470;-56
2021/12/16 06:11:54;;;;;;;24.98;11.13;;;;;;;;;;5072639;28;20052;-58
2021/12/16 06:14:43;;;;;;;27.75;9.68;;;7.20;99.90;;;;;;5051753;28;20045;-56
2021/12/16 06:26:24;;;;;;;26.80;12.68;;;7.10;99.90;;;;;;5045398;28;20132;-58
2021/12/16 06:28:30;;;;;;;24.67;11.75;;;7.10;99.90;;;;;;5008043;28;20044;-58
2021/12/16 06:30:56;;;;;;;24.85;11.32;;;;;;;;;;5052591;28;20048;-58
2021/12/16 06:33:23;;;;;;;24.65;12.23;;;7.00;99.90;;;;;;5051456;28;20495;-58
2021/12/16 06:35:52;;;;;;;25.92;12.05;;;;;;;;;;5051831;28;20120;-56
2021/12/16 06:38:23;;;;;;;31.98;12.48;;;6.90;99.90;;;;;;5052059;28;20037;-56
2021/12/16 06:40:50;;;;;;;30.45;12.85;;;7.00;99.90;;;;;;5052501;28;20639;-58
2021/12/16 06:43:17;;;;;;;30.33;13.27;;;;;;;;;;5051400;28;20095;-57
2021/12/16 06:45:47;;;;;;;30.13;11.43;;;;;;;;;;5030720;28;20483;-58
2021/12/16 06:48:18;;;;;;;31.80;12.50;;;;;;;;;;5070746;28;20079;-58
2021/12/16 06:53:21;;;;;;;26.90;12.38;;;6.80;99.90;;;;;;5055060;28;20453;-58
2021/12/16 06:56:01;;;;;;;25.27;12.50;;;;;;;;;;5048380;28;20486;-56
2021/12/16 06:58:42;;;;;;;26.23;12.70;;;6.80;99.90;;;;;;5060106;28;20080;-53
2021/12/16 07:01:18;;;;;;;27.92;12.07;;;;;;;;;;5056200;28;20570;-57
2021/12/16 07:03:49;;;;;;;38.33;14.38;;;;;;;;;;5056190;28;20052;-56
2021/12/16 07:06:17;;;;;;;32.72;13.95;;;;;;;;;;5048147;28;20422;-56
2021/12/16 07:08:47;;;;;;;30.92;13.38;;;;;;;;;;5043250;28;20072;-57
2021/12/16 07:11:13;;;;;;;31.63;13.77;;;;;;;;;;5057459;28;20037;-56
2021/12/16 07:13:45;;;;;;;31.85;15.20;;;6.20;99.90;;;;;;5050627;28;20060;-58
2021/12/16 07:16:12;;;;;;;35.08;14.68;;;6.30;99.90;;;;;;5050649;28;20106;-56
2021/12/16 07:18:38;;;;;;;34.50;15.45;;;6.60;99.90;;;;;;5051743;28;20035;-56
2021/12/16 07:21:12;;;;;;;;;;;6.30;99.90;;;;;;5036368;28;20041;-54
2021/12/16 07:23:38;;;;;;;24.92;14.25;;;6.60;99.90;;;;;;5038615;28;20405;-58
2021/12/16 07:26:04;;;;;;;38.58;15.20;;;;;;;;;;5050545;28;20045;-58
2021/12/16 07:28:30;;;;;;;31.15;14.68;;;;;;;;;;5051121;28;20033;-56
2021/12/16 07:30:56;;;;;;;36.30;15.85;;;;;;;;;;5050690;28;20045;-57
2021/12/16 07:33:22;;;;;;;38.42;16.50;;;;;;;;;;5049226;28;20041;-58
2021/12/16 07:35:52;;;;;;;30.38;14.70;;;;;;;;;;5048056;28;20040;-57
2021/12/16 07:38:18;;;;;;;38.90;17.08;;;;;;;;;;5049168;28;20029;-54
2021/12/16 07:40:47;;;;;;;39.45;20.73;;;6.40;99.90;;;;;;5050273;28;20041;-57
2021/12/16 07:43:26;;;;;;;59.35;26.05;;;;;;;;;;5060658;28;20421;-58
2021/12/16 07:45:54;;;;;;;54.65;24.50;;;;;;;;;;5057435;28;20115;-58
2021/12/16 07:48:21;;;;;;;59.33;23.30;;;;;;;;;;5068862;28;20178;-56
2021/12/16 07:50:48;;;;;;;78.10;29.88;;;;;;;;;;5032560;28;20052;-57
2021/12/16 07:53:17;;;;;;;79.85;32.67;;;;;;;;;;5050249;28;20033;-55
2021/12/16 07:55:47;;;;;;;113.95;37.80;;;;;;;;;;5049347;28;20491;-56
2021/12/16 07:58:14;;;;;;;82.38;32.03;;;;;;;;;;5050953;28;20041;-57
2021/12/16 08:00:43;;;;;;;87.15;30.80;;;6.50;99.90;;;;;;5050049;28;20044;-56
2021/12/16 08:03:10;;;;;;;85.10;29.33;;;;;;;;;;5031475;28;20033;-58
2021/12/16 08:05:43;;;;;;;110.65;35.33;;;;;;;;;;5049947;28;20044;-58
2021/12/16 08:08:09;;;;;;;85.75;31.20;;;;;;;;;;5050379;28;20044;-58
2021/12/16 08:10:36;;;;;;;79.43;28.05;;;;;;;;;;5050561;28;20575;-58
2021/12/16 08:13:02;;;;;;;76.68;29.02;;;;;;;;;;5049944;28;20376;-57
2021/12/16 08:15:29;;;;;;;53.88;21.17;;;6.10;99.90;;;;;;5049444;28;20029;-55
2021/12/16 08:17:56;;;;;;;39.63;17.73;;;;;;;;;;5013319;28;20064;-57
2021/12/16 08:20:22;;;;;;;53.20;21.63;;;;;;;;;;5030783;28;20109;-56
2021/12/16 08:22:53;;;;;;;62.67;25.25;;;;;;;;;;5036490;28;20102;-57
2021/12/16 08:25:21;;;;;;;60.10;24.90;;;;;;;;;;5048431;28;20128;-57
2021/12/16 08:27:48;;;;;;;63.08;20.88;;;;;;;;;;5031846;28;20072;-58
2021/12/16 08:30:16;;;;;;;73.60;23.92;;;;;;;;;;5050288;28;20041;-56
2021/12/16 08:32:43;;;;;;;64.35;23.50;;;;;;;;;;5048981;28;20059;-56
2021/12/16 08:35:10;;;;;;;53.47;21.92;;;;;;;;;;5057900;28;20082;-57
2021/12/16 08:37:35;;;;;;;43.63;17.20;;;6.10;99.90;;;;;;5049889;28;20498;-57
2021/12/16 08:40:04;;;;;;;56.67;18.30;;;;;;;;;;5031630;28;20088;-56
2021/12/16 08:42:30;;;;;;;87.63;28.20;;;;;;;;;;5050170;28;20033;-58
2021/12/16 08:44:56;;;;;;;112.93;32.53;;;;;;;;;;5048392;28;20049;-56
2021/12/16 08:47:25;;;;;;;111.00;30.10;;;;;;;;;;5050426;28;20125;-57
2021/12/16 08:49:51;;;;;;;106.15;30.70;;;5.90;99.90;;;;;;5049603;28;20133;-56
2021/12/16 08:52:20;;;;;;;81.18;24.25;;;6.00;99.90;;;;;;5052001;28;20075;-56
2021/12/16 08:54:46;;;;;;;138.48;33.25;;;;;;;;;;5050314;28;20037;-56
2021/12/16 08:57:12;;;;;;;152.48;34.40;;;6.10;99.90;;;;;;5050312;28;20036;-58
2021/12/16 08:59:38;;;;;;;131.57;31.13;;;6.00;99.90;;;;;;5049408;28;20067;-56
2021/12/16 09:02:07;;;;;;;92.60;25.13;;;6.50;99.90;;;;;;5049958;28;20114;-57
2021/12/16 09:04:34;;;;;;;126.28;27.17;;;;;;;;;;5048137;28;20064;-56
2021/12/16 09:07:02;;;;;;;132.23;31.98;;;;;;;;;;5066675;28;20040;-58
2021/12/16 09:09:33;;;;;;;212.52;43.85;;;;;;;;;;5056670;28;20174;-55
2021/12/16 09:12:06;;;;;;;152.13;34.22;;;;;;;;;;5049865;28;20111;-53
2021/12/16 09:14:35;;;;;;;161.37;34.37;;;;;;;;;;5014281;28;20033;-57
2021/12/16 09:17:15;;;;;;;109.50;26.65;;;;;;;;;;5049285;28;20049;-57
2021/12/16 09:19:46;;;;;;;108.95;29.52;;;6.90;99.90;;;;;;5057861;28;20086;-56
2021/12/16 09:22:16;;;;;;;147.73;37.42;;;6.20;99.90;;;;;;5050485;28;20112;-57
2021/12/16 09:24:42;;;;;;;137.95;32.50;;;;;;;;;;5047924;28;20052;-58
2021/12/16 09:27:08;;;;;;;114.70;29.13;;;;;;;;;;5050436;28;20075;-59
2021/12/16 09:29:34;;;;;;;139.68;27.92;;;;;;;;;;5048396;28;20041;-58
2021/12/16 09:32:04;;;;;;;131.90;26.25;;;;;;;;;;5049420;28;20043;-58
2021/12/16 09:34:30;;;;;;;87.63;24.88;;;;;;;;;;5048756;28;20380;-56
2021/12/16 09:36:56;;;;;;;107.68;27.45;;;;;;;;;;5049573;28;20045;-56
2021/12/16 09:39:27;;;;;;;70.47;22.38;;;;;;;;;;5048790;28;20487;-57
2021/12/16 09:41:55;;;;;;;72.40;21.77;;;;;;;;;;5049344;28;20041;-56
2021/12/16 09:44:22;;;;;;;68.13;20.85;;;;;;;;;;5029943;28;20056;-54
2021/12/16 09:46:49;;;;;;;61.88;20.05;;;;;;;;;;5049349;28;20042;-56
2021/12/16 09:49:16;;;;;;;65.20;18.30;;;;;;;;;;5049455;28;20107;-56
2021/12/16 09:51:43;;;;;;;69.20;19.70;;;;;;;;;;5049074;28;20037;-57
2021/12/16 09:54:15;;;;;;;62.45;18.65;;;;;;;;;;5047678;28;20461;-56
2021/12/16 09:56:43;;;;;;;65.38;18.17;;;;;;;;;;5028505;28;20052;-56
2021/12/16 09:59:13;;;;;;;55.30;17.00;;;;;;;;;;5059234;28;20048;-55
2021/12/16 10:01:39;;;;;;;58.20;18.65;;;7.10;99.90;;;;;;5048436;28;20051;-57
2021/12/16 10:04:07;;;;;;;51.75;16.88;;;;;;;;;;5049211;28;20048;-56
2021/12/16 10:06:35;;;;;;;51.85;18.33;;;;;;;;;;5048611;28;20418;-57
2021/12/16 10:09:04;;;;;;;59.63;18.63;;;;;;;;;;5048374;28;20040;-58
2021/12/16 10:11:31;;;;;;;45.85;17.60;;;7.30;99.90;;;;;;5030510;28;20041;-56
2021/12/16 10:19:09;;;;;;;48.75;16.60;;;;;;;;;;5048371;28;20045;-57
2021/12/16 10:21:36;;;;;;;43.38;18.55;;;;;;;;;;5039440;28;20396;-58
2021/12/16 10:24:03;;;;;;;46.47;17.98;;;;;;;;;;5045811;28;20498;-57
2021/12/16 10:26:28;;;;;;;39.63;18.40;;;;;;;;;;5057096;28;20507;-56
2021/12/16 10:28:57;;;;;;;49.28;18.90;;;;;;;;;;5064598;28;20071;-57
2021/12/16 10:31:28;;;;;;;46.20;20.50;;;;;;;;;;5042845;28;20041;-58
2021/12/16 10:33:57;;;;;;;41.90;19.15;;;;;;;;;;5062356;28;20045;-58
2021/12/16 10:36:29;;;;;;;38.05;16.17;;;;;;;;;;5063276;28;20120;-59
2021/12/16 10:38:57;;;;;;;48.13;19.83;;;;;;;;;;5029639;28;20041;-59
2021/12/16 10:41:28;;;;;;;42.00;19.10;;;8.10;99.90;;;;;;5033482;28;20032;-60
2021/12/16 10:43:56;;;;;;;40.40;18.98;;;;;;;;;;5050946;28;20051;-58
2021/12/16 10:46:27;;;;;;;43.25;19.20;;;;;;;;;;5050933;28;20045;-60
2021/12/16 10:48:54;;;;;;;41.40;17.65;;;;;;;;;;5051114;28;20076;-56
2021/12/16 10:51:35;;;;;;;39.58;17.98;;;8.70;99.90;;;;;;5051188;28;20404;-56
2021/12/16 10:54:05;;;;;;;35.17;17.50;;;;;;;;;;5051340;28;20041;-55
2021/12/16 10:56:37;;;;;;;41.47;19.83;;;;;;;;;;5046574;28;20040;-54
2021/12/16 10:59:06;;;;;;;39.28;19.52;;;;;;;;;;5057230;28;20039;-52
2021/12/16 11:01:38;;;;;;;38.25;18.05;;;;;;;;;;5032090;28;20051;-55
2021/12/16 11:04:08;;;;;;;42.70;18.77;;;;;;;;;;5049737;28;20402;-56
2021/12/16 11:06:38;;;;;;;44.72;18.58;;;;;;;;;;5058487;28;20364;-56
2021/12/16 11:09:24;;;;;;;37.13;18.13;;;;;;;;;;5058662;28;20132;-55
2021/12/16 11:12:14;;;;;;;40.13;17.40;;;;;;;;;;5043083;28;20043;-54
2021/12/16 11:14:41;;;;;;;37.35;19.58;;;;;;;;;;5014246;28;20091;-52
2021/12/16 11:17:09;;;;;;;36.28;17.88;;;;;;;;;;5049370;28;20040;-56
2021/12/16 11:19:54;;;;;;;36.30;17.92;;;;;;;;;;5048153;28;20068;-53
2021/12/16 11:22:23;;;;;;;47.45;20.58;;;;;;;;;;5040232;28;20041;-58
2021/12/16 11:24:50;;;;;;;39.45;17.40;;;;;;;;;;5043350;28;20044;-56
2021/12/16 11:27:35;;;;;;;43.15;19.42;;;9.20;99.90;;;;;;5021716;28;20116;-58
2021/12/16 11:30:20;;;;;;;37.42;18.20;;;;;;;;;;5023084;28;20454;-56
2021/12/16 11:32:47;;;;;;;43.15;18.88;;;;;;;;;;5046044;28;20407;-57
2021/12/16 11:35:27;;;;;;;32.47;16.67;;;;;;;;;;5041337;28;20377;-58
2021/12/16 11:37:53;;;;;;;56.83;18.00;;;;;;;;;;5036696;28;20037;-58
2021/12/16 11:40:19;;;;;;;44.33;16.42;;;;;;;;;;5049933;28;20447;-55
2021/12/16 11:42:57;;;;;;;48.95;18.20;;;;;;;;;;5066488;28;20392;-57
2021/12/16 11:45:37;;;;;;;41.78;16.92;;;;;;;;;;5049624;28;20433;-56
2021/12/16 11:48:04;;;;;;;51.47;16.17;;;;;;;;;;5032020;28;20144;-56
2021/12/16 11:50:40;;;;;;;39.53;15.90;;;9.60;99.90;;;;;;5041890;28;20043;-58
2021/12/16 11:53:06;;;;;;;44.28;15.25;;;;;;;;;;5051170;28;20033;-58
2021/12/16 11:55:37;;;;;;;58.40;15.80;;;9.50;99.90;;;;;;5032968;28;20098;-55
2021/12/16 11:58:03;;;;;;;47.05;16.02;;;;;;;;;;5051447;28;20037;-54
2021/12/16 12:00:40;;;;;;;52.72;19.13;;;9.80;99.90;;;;;;5049572;28;20070;-58
2021/12/16 12:03:07;;;;;;;44.20;17.85;;;;;;;;;;5051284;28;20055;-56
2021/12/16 12:05:36;;;;;;;41.67;16.20;;;;;;;;;;5050149;28;20174;-57
2021/12/16 12:08:23;;;;;;;56.08;20.10;;;9.20;99.90;;;;;;5068085;28;20079;-54
2021/12/16 12:11:24;;;;;;;51.08;19.70;;;9.50;99.90;;;;;;5047721;28;20045;-57
2021/12/16 12:13:54;;;;;;;55.90;20.98;;;;;;;;;;5054114;28;20080;-57
2021/12/16 12:16:28;;;;;;;45.60;17.90;;;;;;;;;;5052458;28;20488;-56
2021/12/16 12:19:06;;;;;;;62.75;20.45;;;9.70;99.90;;;;;;5050223;28;20486;-58
2021/12/16 12:21:34;;;;;;;51.72;19.73;;;;;;;;;;5042997;28;20083;-57
2021/12/16 12:24:02;;;;;;;45.58;18.70;;;;;;;;;;5059669;28;20502;-56
2021/12/16 12:26:30;;;;;;;48.25;19.55;;;;;;;;;;5041725;28;20410;-58
2021/12/16 12:28:58;;;;;;;54.55;19.92;;;;;;;;;;5061100;28;20037;-56
2021/12/16 12:31:26;;;;;;;65.97;20.73;;;10.30;99.90;;;;;;5038424;28;20044;-56
2021/12/16 12:33:53;;;;;;;37.40;19.52;;;;;;;;;;5059370;28;20036;-56
2021/12/16 12:36:20;;;;;;;44.80;20.00;;;;;;;;;;5058141;28;20526;-56
2021/12/16 12:38:47;;;;;;;48.35;19.42;;;;;;;;;;5065155;28;20098;-55
2021/12/16 12:41:13;;;;;;;48.40;18.98;;;;;;;;;;5064737;28;20498;-55
2021/12/16 12:43:39;;;;;;;68.50;21.85;;;;;;;;;;5064577;28;20650;-55
2021/12/16 12:46:07;;;;;;;64.55;22.60;;;9.60;99.90;;;;;;5065279;28;20043;-56
2021/12/16 12:48:34;;;;;;;55.85;22.05;;;;;;;;;;5066521;28;20116;-56
2021/12/16 12:51:00;;;;;;;48.92;21.17;;;;;;;;;;5027609;28;20187;-54
2021/12/16 12:53:31;;;;;;;51.83;20.50;;;;;;;;;;5038096;28;20522;-56
2021/12/16 12:56:07;;;;;;;58.95;21.52;;;;;;;;;;5048461;28;20445;-57
2021/12/16 12:58:34;;;;;;;50.78;19.98;;;;;;;;;;5033626;28;20043;-55
2021/12/16 13:01:05;;;;;;;52.25;20.73;;;9.20;99.90;;;;;;5031800;28;20049;-53
2021/12/16 13:03:34;;;;;;;54.88;21.15;;;;;;;;;;5050063;28;20411;-57
2021/12/16 13:06:02;;;;;;;49.58;21.23;;;;;;;;;;5048351;28;20033;-56
2021/12/16 13:08:30;;;;;;;50.58;22.10;;;;;;;;;;5026997;28;20036;-55
2021/12/16 13:11:01;;;;;;;43.30;20.45;;;;;;;;;;5032218;28;20044;-58
2021/12/16 13:24:45;;;;;;;56.67;23.60;;;;;;;;;;5047664;28;20415;-56
2021/12/16 13:30:05;;;;;;;44.28;19.52;;;9.70;99.90;;;;;;5049354;28;20478;-56
2021/12/16 13:32:42;;;;;;;36.38;18.35;;;;;;;;;;5023995;28;20545;-58
2021/12/16 13:37:37;;;;;;;51.83;20.92;;;;;;;;;;5049032;28;20449;-56
2021/12/16 13:40:14;;;;;;;39.58;19.50;;;9.60;99.90;;;;;;5048902;28;20037;-55
2021/12/16 13:42:55;;;;;;;45.33;19.98;;;;;;;;;;5049165;28;20044;-56
2021/12/16 13:45:27;;;;;;;41.17;18.65;;;;;;;;;;5030249;28;20053;-56
2021/12/16 14:02:13;;;;;;;48.92;20.80;;;;;;;;;;5061530;28;20044;-55
2021/12/16 14:10:04;;;;;;;55.03;21.80;;;;;;;;;;5045404;28;20067;-56
2021/12/16 14:23:34;;;;;;;35.60;19.27;;;;;;;;;;5059502;28;20589;-56
2021/12/16 14:32:03;;;;;;;40.55;17.33;;;10.20;99.90;;;;;;5059927;28;20127;-56
2021/12/16 14:37:18;;;;;;;36.85;16.90;;;9.50;99.90;;;;;;5061512;28;20048;-57
2021/12/16 14:43:02;;;;;;;39.85;18.55;;;;;;;;;;5061417;28;20116;-57
2021/12/16 14:45:43;;;;;;;44.20;19.88;;;;;;;;;;5041819;28;20114;-58
2021/12/16 14:51:00;;;;;;;52.97;21.55;;;9.70;99.90;;;;;;5059343;28;20051;-57
2021/12/16 14:53:26;;;;;;;;;;;9.60;99.90;;;;;;5060293;28;20063;-56
2021/12/16 14:55:56;;;;;;;54.33;22.83;;;9.70;99.90;;;;;;5041149;28;20473;-56
2021/12/16 14:58:24;;;;;;;52.08;22.50;;;;;;;;;;5034981;28;20064;-55
2021/12/16 15:01:13;;;;;;;54.38;23.13;;;9.70;99.90;;;;;;5045753;28;20037;-53
2021/12/16 15:03:41;;;;;;;48.13;23.55;;;;;;;;;;5064043;28;20052;-57
2021/12/16 15:06:15;;;;;;;54.58;24.15;;;9.00;99.90;;;;;;5060066;28;20625;-53
2021/12/16 15:11:56;;;;;;;55.87;25.67;;;9.40;99.90;;;;;;5032682;28;20510;-58
2021/12/16 15:14:54;;;;;;;64.28;25.08;;;;;;;;;;5060153;28;20359;-55
2021/12/16 15:31:35;;;;;;;53.30;23.85;;;;;;;;;;5061520;28;20411;-59
2021/12/16 15:34:20;;;;;;;52.83;24.88;;;;;;;;;;5059472;28;20132;-55
2021/12/16 15:40:34;;;;;;;;;;;9.50;99.90;;;;;;5063276;28;20037;-56
2021/12/16 15:43:03;;;;;;;61.85;26.17;;;;;;;;;;5043542;28;19917;-58
2021/12/16 15:45:34;;;;;;;59.03;26.00;;;;;;;;;;5062675;28;21370;-59
2021/12/16 15:48:11;;;;;;;56.33;26.02;;;;;;;;;;5059647;28;20402;-57
2021/12/16 15:50:39;;;;;;;56.20;24.40;;;;;;;;;;5044852;28;20036;-58
2021/12/16 15:53:09;;;;;;;54.10;24.55;;;;;;;;;;5064567;28;20249;-59
2021/12/16 15:55:47;;;;;;;55.40;23.52;;;;;;;;;;5039743;28;20036;-57
2021/12/16 15:58:23;;;;;;;51.58;20.92;;;9.70;99.90;;;;;;5060700;28;20047;-57
2021/12/16 16:00:59;;;;;;;81.25;26.90;;;;;;;;;;5059282;28;20036;-57
2021/12/16 16:03:26;;;;;;;56.22;21.73;;;10.00;99.90;;;;;;5059312;28;20044;-56
2021/12/16 16:05:54;;;;;;;65.30;21.90;;;;;;;;;;5035860;28;20061;-55
2021/12/16 16:08:21;;;;;;;55.33;19.98;;;;;;;;;;5050263;28;20068;-58
2021/12/16 16:10:55;;;;;;;66.60;21.70;;;9.50;99.90;;;;;;5057432;28;20492;-57
2021/12/16 16:13:24;;;;;;;72.50;23.45;;;;;;;;;;5051455;28;20442;-55
2021/12/16 16:15:51;;;;;;;70.85;21.15;;;;;;;;;;5049034;28;20037;-59
2021/12/16 16:20:57;;;;;;;81.05;21.77;;;;;;;;;;5050529;28;20102;-58
2021/12/16 16:23:24;;;;;;;89.18;24.13;;;9.50;99.90;;;;;;5032058;28;20102;-55
2021/12/16 16:25:50;;;;;;;64.70;22.13;;;;;;;;;;5049314;28;20545;-59
2021/12/16 16:28:17;;;;;;;80.00;23.65;;;;;;;;;;5048963;28;20099;-56
2021/12/16 16:30:44;;;;;;;73.70;24.15;;;9.30;99.90;;;;;;5049656;28;20080;-57
2021/12/16 16:33:17;;;;;;;97.30;24.80;;;;;;;;;;5068214;28;20402;-58
2021/12/16 16:35:47;;;;;;;76.43;21.17;;;;;;;;;;5055961;28;20037;-59
2021/12/16 16:38:15;;;;;;;87.78;19.90;;;;;;;;;;5031569;28;20453;-57
2021/12/16 16:40:46;;;;;;;93.88;22.40;;;9.40;99.90;;;;;;5032542;28;20374;-55
2021/12/16 16:43:35;;;;;;;80.63;20.15;;;9.10;99.90;;;;;;5053412;28;20032;-57
2021/12/16 16:46:10;;;;;;;62.58;17.40;;;;;;;;;;5057946;28;20094;-57
2021/12/16 16:48:53;;;;;;;84.30;23.15;;;;;;;;;;5065293;28;20150;-59
2021/12/16 16:51:21;;;;;;;112.45;20.08;;;;;;;;;;5031424;28;20090;-58
2021/12/16 16:53:53;;;;;;;80.95;19.17;;;;;;;;;;5028742;28;20129;-57
2021/12/16 16:56:46;;;;;;;106.10;20.52;;;9.50;99.90;;;;;;5031328;28;20037;-58
2021/12/16 16:59:14;;;;;;;82.15;19.17;;;;;;;;;;5049379;28;20044;-56
2021/12/16 17:01:44;;;;;;;119.53;20.67;;;9.10;99.90;;;;;;5046779;28;20040;-58
2021/12/16 17:04:13;;;;;;;118.00;18.92;;;9.30;99.90;;;;;;5058465;28;20437;-56
2021/12/16 17:06:43;;;;;;;86.25;15.65;;;;;;;;;;5017782;28;20402;-56
2021/12/16 17:09:08;;;;;;;80.10;15.35;;;9.00;99.90;;;;;;5062576;28;20033;-54
2021/12/16 17:11:40;;;;;;;66.45;13.00;;;;;;;;;;5062527;28;20402;-56
2021/12/16 17:14:18;;;;;;;64.70;15.98;;;;;;;;;;5030123;28;20564;-56
2021/12/16 17:19:38;;;;;;;76.82;15.50;;;;;;;;;;5058326;28;20123;-58
2021/12/16 17:22:17;;;;;;;70.68;15.45;;;;;;;;;;5060829;28;20043;-58
2021/12/16 17:24:45;;;;;;;88.45;16.38;;;;;;;;;;5019293;28;20045;-58
2021/12/16 17:27:11;;;;;;;58.03;13.50;;;9.20;99.90;;;;;;5048120;28;20040;-57
2021/12/16 17:29:50;;;;;;;72.85;14.75;;;;;;;;;;5057005;28;20037;-58
2021/12/16 17:32:19;;;;;;;79.93;16.58;;;9.30;99.90;;;;;;5030756;28;20046;-56
2021/12/16 17:34:47;;;;;;;106.47;19.30;;;;;;;;;;5048512;28;20410;-59
2021/12/16 17:37:28;;;;;;;126.90;21.70;;;;;;;;;;5017517;28;20391;-56
2021/12/16 17:39:56;;;;;;;99.28;21.52;;;;;;;;;;5051205;28;20394;-57
2021/12/16 17:42:24;;;;;;;135.75;23.35;;;9.20;99.90;;;;;;5034685;28;20049;-59
2021/12/16 17:44:55;;;;;;;118.22;24.10;;;9.00;99.90;;;;;;5050482;28;20044;-55
2021/12/16 17:47:22;;;;;;;102.03;22.73;;;;;;;;;;5033565;28;20036;-56
2021/12/16 17:49:49;;;;;;;73.97;18.92;;;;;;;;;;5077001;22;20060;-57
2021/12/16 17:52:20;;;;;;;116.20;22.25;;;8.70;99.90;;;;;;5013786;28;20041;-55
2021/12/16 17:54:49;;;;;;;64.28;18.05;;;;;;;;;;5020661;28;20424;-54
2021/12/16 17:57:33;;;;;;;59.05;16.05;;;9.00;99.90;;;;;;5035058;28;20033;-55
2021/12/16 18:00:01;;;;;;;47.03;15.98;;;;;;;;;;5032345;28;20036;-57
2021/12/16 18:02:29;;;;;;;51.00;15.43;;;9.00;99.90;;;;;;5032007;28;20524;-55
2021/12/16 18:04:59;;;;;;;65.82;18.17;;;9.20;99.90;;;;;;5031482;28;20124;-56
2021/12/16 18:07:27;;;;;;;50.13;15.73;;;;;;;;;;5031814;28;20530;-57